Slater, Minnesota
Current Conditions -  °F | °C
As of 10:36 AM on Wednesday 22 Oct 2014 (Local Time) from KXVG Reporting Station
Clear Clear  
Wind Chill: 52°   Ceiling: Unl
Heat Index: 52°   Visibility: 10mi
Dew Point: 39°   Wind: 20mph
Humidity: 62%   Direction: 150°SSE
Pressure: 30.03"   Gusts: 23mph
Location:  47.0973°N, 93.9173°W
Report Text: KXVG 221536Z AUTO 15017G20KT 10SM CLR 11/04 A3003 RMK AO2 LTG DSNT NW
Loading
Personal Weather Stations






























Interactive Weather Map
Tropical Storm Tracking
New forecast layout! Learn more

10-Day Weather Forecast

Advertisements
Track Severe Weather on mobile